createdAt,value
2018-02-23T00:00:08.826Z,1020.53
2018-02-23T00:01:08.836Z,1020.52
2018-02-23T00:02:08.849Z,1020.55
2018-02-23T00:03:08.865Z,1020.52
2018-02-23T00:04:08.873Z,1020.52
2018-02-23T00:05:08.889Z,1020.48
2018-02-23T00:06:08.898Z,1020.46
2018-02-23T00:07:08.910Z,1020.46
2018-02-23T00:08:08.921Z,1020.46
2018-02-23T00:09:08.934Z,1020.49
2018-02-23T00:10:08.948Z,1020.46
2018-02-23T00:11:08.957Z,1020.52
2018-02-23T00:12:08.970Z,1020.48
2018-02-23T00:14:08.998Z,1020.46
2018-02-23T00:15:09.005Z,1020.45
2018-02-23T00:16:09.018Z,1020.46
2018-02-23T00:17:09.035Z,1020.45
2018-02-23T00:18:09.049Z,1020.39
2018-02-23T00:19:09.059Z,1020.41
2018-02-23T00:20:09.071Z,1020.36
2018-02-23T00:21:09.082Z,1020.32
2018-02-23T00:22:09.092Z,1020.31
2018-02-23T00:23:09.103Z,1020.36
2018-02-23T00:24:09.119Z,1020.37
2018-02-23T00:25:09.126Z,1020.36
2018-02-23T00:26:09.142Z,1020.39
2018-02-23T00:27:09.150Z,1020.37
2018-02-23T00:28:09.166Z,1020.4
2018-02-23T00:30:09.187Z,1020.41
2018-02-23T00:31:09.197Z,1020.4
2018-02-23T00:32:09.218Z,1020.4
2018-02-23T00:33:09.227Z,1020.4
2018-02-23T00:34:09.238Z,1020.38
2018-02-23T00:35:09.246Z,1020.42
2018-02-23T00:36:09.258Z,1020.43
2018-02-23T00:37:09.269Z,1020.45
2018-02-23T00:38:09.282Z,1020.42
2018-02-23T00:39:09.294Z,1020.42
2018-02-23T00:40:09.304Z,1020.41
2018-02-23T00:41:09.316Z,1020.38
2018-02-23T00:42:09.328Z,1020.43
2018-02-23T00:43:09.347Z,1020.4
2018-02-23T00:44:09.376Z,1020.43
2018-02-23T00:46:09.377Z,1020.51
2018-02-23T00:47:09.389Z,1020.49
2018-02-23T00:48:09.399Z,1020.48
2018-02-23T00:49:09.415Z,1020.48
2018-02-23T00:50:09.423Z,1020.49
2018-02-23T00:51:09.438Z,1020.4
2018-02-23T00:52:09.446Z,1020.44
2018-02-23T00:53:09.462Z,1020.42
2018-02-23T00:54:09.474Z,1020.4
2018-02-23T00:55:09.481Z,1020.39
2018-02-23T00:56:09.493Z,1020.35
2018-02-23T00:57:09.513Z,1020.33
2018-02-23T00:58:09.518Z,1020.35
2018-02-23T00:59:09.531Z,1020.33
2018-02-23T01:01:09.552Z,1020.32
2018-02-23T01:02:09.564Z,1020.29
2018-02-23T01:03:09.575Z,1020.31
2018-02-23T01:04:09.587Z,1020.32
2018-02-23T01:05:09.599Z,1020.3
2018-02-23T01:06:09.610Z,1020.28
2018-02-23T01:07:09.622Z,1020.28
2018-02-23T01:08:09.638Z,1020.28
2018-02-23T01:09:09.648Z,1020.27
2018-02-23T01:10:09.656Z,1020.25
2018-02-23T01:11:09.668Z,1020.29
2018-02-23T01:12:09.680Z,1020.28
2018-02-23T01:13:09.692Z,1020.33
2018-02-23T01:14:09.704Z,1020.33
2018-02-23T01:15:09.719Z,1020.37
2018-02-23T01:16:09.727Z,1020.32
2018-02-23T01:17:09.737Z,1020.31
2018-02-23T01:18:09.748Z,1020.29
2018-02-23T01:19:09.762Z,1020.29
2018-02-23T01:20:09.775Z,1020.25
2018-02-23T01:21:09.788Z,1020.29
2018-02-23T01:22:09.798Z,1020.27
2018-02-23T01:23:09.808Z,1020.27
2018-02-23T01:24:09.818Z,1020.28
2018-02-23T01:25:09.831Z,1020.28
2018-02-23T01:26:09.842Z,1020.26
2018-02-23T01:27:09.857Z,1020.26
2018-02-23T01:28:09.868Z,1020.27
2018-02-23T01:29:09.875Z,1020.26
2018-02-23T01:30:09.887Z,1020.29
2018-02-23T01:31:09.907Z,1020.31
2018-02-23T01:33:09.925Z,1020.26
2018-02-23T01:34:09.933Z,1020.26
2018-02-23T01:35:09.947Z,1020.25
2018-02-23T01:36:09.959Z,1020.27
2018-02-23T01:37:09.966Z,1020.23
2018-02-23T01:38:09.982Z,1020.23
2018-02-23T01:39:09.989Z,1020.22
2018-02-23T01:40:10.005Z,1020.27
2018-02-23T01:41:10.013Z,1020.23
2018-02-23T01:42:10.027Z,1020.23
2018-02-23T01:43:10.039Z,1020.25
2018-02-23T01:44:10.049Z,1020.25
2018-02-23T01:45:10.159Z,1020.21
2018-02-23T01:46:10.068Z,1020.22
2018-02-23T01:47:10.081Z,1020.2
2018-02-23T01:49:10.108Z,1020.2
2018-02-23T01:50:10.115Z,1020.18
2018-02-23T01:51:10.126Z,1020.15
2018-02-23T01:52:10.144Z,1020.18
2018-02-23T01:53:10.148Z,1020.2
2018-02-23T01:54:10.160Z,1020.21
2018-02-23T01:55:10.171Z,1020.21
2018-02-23T01:56:10.182Z,1020.15
2018-02-23T01:57:10.200Z,1020.18
2018-02-23T01:58:10.204Z,1020.14
2018-02-23T01:59:10.219Z,1020.17
2018-02-23T02:00:10.232Z,1020.19
2018-02-23T02:01:10.238Z,1020.18
2018-02-23T02:02:10.254Z,1020.13
2018-02-23T02:03:10.266Z,1020.12
2018-02-23T02:05:10.288Z,1020.16
2018-02-23T02:06:10.299Z,1020.14
2018-02-23T02:07:10.310Z,1020.15
2018-02-23T02:08:10.316Z,1020.14
2018-02-23T02:09:10.328Z,1020.12
2018-02-23T02:10:10.343Z,1020.14
2018-02-23T02:11:10.351Z,1020.15
2018-02-23T02:12:10.361Z,1020.12
2018-02-23T02:13:10.379Z,1020.13
2018-02-23T02:14:10.385Z,1020.13
2018-02-23T02:15:10.398Z,1020.15
2018-02-23T02:16:10.405Z,1020.13
2018-02-23T02:17:10.418Z,1020.12
2018-02-23T02:18:10.431Z,1020.1
2018-02-23T02:19:10.439Z,1020.12
2018-02-23T02:21:10.461Z,1020.09
2018-02-23T02:22:10.473Z,1020.08
2018-02-23T02:23:10.484Z,1020.11
2018-02-23T02:24:10.498Z,1020.09
2018-02-23T02:25:10.510Z,1020.07
2018-02-23T02:26:10.519Z,1020.08
2018-02-23T02:27:10.527Z,1020.07
2018-02-23T02:28:10.539Z,1020.09
2018-02-23T02:29:10.550Z,1020.09
2018-02-23T02:30:10.562Z,1020.08
2018-02-23T02:31:10.576Z,1020.1
2018-02-23T02:32:10.589Z,1020.08
2018-02-23T02:33:10.598Z,1020.06
2018-02-23T02:34:10.612Z,1020.05
2018-02-23T02:36:10.629Z,1020.08
2018-02-23T02:37:10.642Z,1020.07
2018-02-23T02:38:10.654Z,1020.12
2018-02-23T02:39:10.667Z,1020.05
2018-02-23T02:40:10.676Z,1020.06
2018-02-23T02:41:10.687Z,1020.09
2018-02-23T02:42:10.699Z,1020.05
2018-02-23T02:43:10.708Z,1020.04
2018-02-23T02:44:10.715Z,1020.06
2018-02-23T02:45:10.728Z,1020.01
2018-02-23T02:46:10.737Z,1020.01
2018-02-23T02:47:10.749Z,1019.99
2018-02-23T02:48:10.761Z,1020.02
2018-02-23T02:49:10.772Z,1020.07
2018-02-23T02:50:10.783Z,1020.05
2018-02-23T02:51:10.793Z,1020.08
2018-02-23T02:52:10.807Z,1020.1
2018-02-23T02:53:10.813Z,1020.06
2018-02-23T02:54:10.830Z,1020.08
2018-02-23T02:55:10.836Z,1020.07
2018-02-23T02:56:10.846Z,1020.05
2018-02-23T02:57:10.858Z,1020.05
2018-02-23T02:58:10.872Z,1020.04
2018-02-23T02:59:10.883Z,1020.09
2018-02-23T03:00:10.891Z,1020.08
2018-02-23T03:01:10.906Z,1020.09
2018-02-23T03:02:10.916Z,1020.09
2018-02-23T03:03:10.924Z,1020.08
2018-02-23T03:04:10.936Z,1020.08
2018-02-23T03:05:10.948Z,1020.13
2018-02-23T03:06:10.960Z,1020.05
2018-02-23T03:08:10.980Z,1020.1
2018-02-23T03:09:10.990Z,1020.11
2018-02-23T03:10:10.999Z,1020.09
2018-02-23T03:11:11.013Z,1020.16
2018-02-23T03:12:11.025Z,1020.14
2018-02-23T03:13:11.032Z,1020.17
2018-02-23T03:14:11.045Z,1020.16
2018-02-23T03:15:11.053Z,1020.17
2018-02-23T03:16:11.069Z,1020.18
2018-02-23T03:17:11.078Z,1020.22
2018-02-23T03:18:11.090Z,1020.19
2018-02-23T03:19:11.096Z,1020.16
2018-02-23T03:20:11.108Z,1020.14
2018-02-23T03:21:11.122Z,1020.14
2018-02-23T03:22:11.132Z,1020.11
2018-02-23T03:24:11.157Z,1020.04
2018-02-23T03:25:11.165Z,1020.05
2018-02-23T03:26:11.171Z,1020.04
2018-02-23T03:27:11.183Z,1020.08
2018-02-23T03:28:11.196Z,1020.1
2018-02-23T03:29:11.205Z,1020.12
2018-02-23T03:30:11.216Z,1020.11
2018-02-23T03:31:11.232Z,1020.1
2018-02-23T03:32:11.240Z,1020.06
2018-02-23T03:33:11.251Z,1020.05
2018-02-23T03:34:11.259Z,1020.08
2018-02-23T03:35:11.271Z,1020.04
2018-02-23T03:36:11.279Z,1020.06
2018-02-23T03:37:11.290Z,1020.08
2018-02-23T03:38:11.304Z,1020.06
2018-02-23T03:40:11.323Z,1020.06
2018-02-23T03:41:11.357Z,1020.13
2018-02-23T03:42:11.347Z,1020.11
2018-02-23T03:43:11.354Z,1020.1
2018-02-23T03:44:11.366Z,1020.12
2018-02-23T03:45:11.380Z,1020.12
2018-02-23T03:46:11.388Z,1020.14
2018-02-23T03:47:11.400Z,1020.14
2018-02-23T03:48:11.407Z,1020.13
2018-02-23T03:49:11.418Z,1020.19
2018-02-23T03:50:11.428Z,1020.21
2018-02-23T03:51:11.442Z,1020.25
2018-02-23T03:52:11.457Z,1020.21
2018-02-23T03:53:11.462Z,1020.22
2018-02-23T03:54:11.471Z,1020.2
2018-02-23T03:56:11.492Z,1020.26
2018-02-23T03:57:11.504Z,1020.25
2018-02-23T03:58:11.515Z,1020.25
2018-02-23T03:59:11.524Z,1020.29
2018-02-23T04:00:11.539Z,1020.3
2018-02-23T04:01:11.544Z,1020.28
2018-02-23T04:02:11.558Z,1020.28
2018-02-23T04:03:11.570Z,1020.28
2018-02-23T04:04:11.588Z,1020.31
2018-02-23T04:05:11.644Z,1020.25
2018-02-23T04:06:11.601Z,1020.28
2018-02-23T04:07:11.609Z,1020.27
2018-02-23T04:08:11.624Z,1020.31
2018-02-23T04:09:11.634Z,1020.28
2018-02-23T04:11:11.652Z,1020.3
2018-02-23T04:12:11.664Z,1020.28
2018-02-23T04:13:11.676Z,1020.27
2018-02-23T04:14:11.684Z,1020.28
2018-02-23T04:15:11.699Z,1020.29
2018-02-23T04:16:11.704Z,1020.32
2018-02-23T04:17:11.722Z,1020.31
2018-02-23T04:18:11.728Z,1020.32
2018-02-23T04:19:11.739Z,1020.34
2018-02-23T04:20:11.751Z,1020.3
2018-02-23T04:21:11.758Z,1020.31
2018-02-23T04:22:11.771Z,1020.33
2018-02-23T04:23:11.780Z,1020.29
2018-02-23T04:24:11.789Z,1020.3
2018-02-23T04:25:11.800Z,1020.28
2018-02-23T04:26:11.811Z,1020.3
2018-02-23T04:27:11.825Z,1020.34
2018-02-23T04:28:11.836Z,1020.35
2018-02-23T04:29:11.846Z,1020.3
2018-02-23T04:30:11.854Z,1020.33
2018-02-23T04:31:11.863Z,1020.33
2018-02-23T04:32:11.875Z,1020.33
2018-02-23T04:33:11.887Z,1020.33
2018-02-23T04:34:11.901Z,1020.32
2018-02-23T04:35:11.908Z,1020.34
2018-02-23T04:36:11.916Z,1020.31
2018-02-23T04:37:11.927Z,1020.34
2018-02-23T04:38:11.936Z,1020.37
2018-02-23T04:39:11.947Z,1020.35
2018-02-23T04:40:11.958Z,1020.39
2018-02-23T04:41:11.973Z,1020.36
2018-02-23T04:43:11.989Z,1020.4
2018-02-23T04:44:12.001Z,1020.44
2018-02-23T04:45:12.013Z,1020.38
2018-02-23T04:46:12.026Z,1020.43
2018-02-23T04:47:12.033Z,1020.44
2018-02-23T04:48:12.043Z,1020.44
2018-02-23T04:49:12.080Z,1020.46
2018-02-23T04:50:12.064Z,1020.51
2018-02-23T04:51:12.074Z,1020.47
2018-02-23T04:52:12.083Z,1020.5
2018-02-23T04:53:12.096Z,1020.53
2018-02-23T04:54:12.110Z,1020.49
2018-02-23T04:55:12.119Z,1020.55
2018-02-23T04:56:12.133Z,1020.56
2018-02-23T04:57:12.137Z,1020.58
2018-02-23T04:59:12.158Z,1020.56
2018-02-23T05:00:12.166Z,1020.55
2018-02-23T05:01:12.178Z,1020.57
2018-02-23T05:02:12.193Z,1020.59
2018-02-23T05:03:12.198Z,1020.54
2018-02-23T05:04:12.308Z,1020.55
2018-02-23T05:05:12.220Z,1020.52
2018-02-23T05:06:12.230Z,1020.56
2018-02-23T05:07:12.243Z,1020.52
2018-02-23T05:08:12.254Z,1020.58
2018-02-23T05:09:12.264Z,1020.56
2018-02-23T05:10:12.271Z,1020.54
2018-02-23T05:11:12.280Z,1020.54
2018-02-23T05:12:12.294Z,1020.56
2018-02-23T05:13:12.302Z,1020.57
2018-02-23T05:15:12.321Z,1020.61
2018-02-23T05:16:12.336Z,1020.6
2018-02-23T05:17:12.342Z,1020.58
2018-02-23T05:18:12.355Z,1020.59
2018-02-23T05:19:12.364Z,1020.57
2018-02-23T05:20:12.373Z,1020.57
2018-02-23T05:21:12.385Z,1020.6
2018-02-23T05:22:12.397Z,1020.63
2018-02-23T05:23:12.404Z,1020.61
2018-02-23T05:24:12.414Z,1020.58
2018-02-23T05:25:12.424Z,1020.58
2018-02-23T05:26:12.437Z,1020.58
2018-02-23T05:27:12.445Z,1020.59
2018-02-23T05:28:12.457Z,1020.58
2018-02-23T05:29:12.465Z,1020.57
2018-02-23T05:31:12.484Z,1020.65
2018-02-23T05:32:12.497Z,1020.62
2018-02-23T05:33:12.505Z,1020.66
2018-02-23T05:34:12.520Z,1020.64
2018-02-23T05:35:12.529Z,1020.65
2018-02-23T05:36:12.540Z,1020.64
2018-02-23T05:37:12.545Z,1020.61
2018-02-23T05:38:12.561Z,1020.62
2018-02-23T05:39:12.566Z,1020.64
2018-02-23T05:40:12.577Z,1020.63
2018-02-23T05:41:12.590Z,1020.64
2018-02-23T05:42:12.596Z,1020.67
2018-02-23T05:43:12.610Z,1020.66
2018-02-23T05:44:12.620Z,1020.64
2018-02-23T05:46:12.637Z,1020.65
2018-02-23T05:47:12.648Z,1020.68
2018-02-23T05:48:12.658Z,1020.65
2018-02-23T05:49:12.671Z,1020.68
2018-02-23T05:50:12.681Z,1020.72
2018-02-23T05:51:12.693Z,1020.73
2018-02-23T05:52:12.698Z,1020.76
2018-02-23T05:53:12.710Z,1020.67
2018-02-23T05:54:12.722Z,1020.69
2018-02-23T05:55:12.728Z,1020.74
2018-02-23T05:56:12.739Z,1020.74
2018-02-23T05:57:12.750Z,1020.76
2018-02-23T05:58:12.762Z,1020.75
2018-02-23T05:59:12.768Z,1020.79
2018-02-23T06:00:12.779Z,1020.83
2018-02-23T06:01:12.790Z,1020.87
2018-02-23T06:02:12.799Z,1020.84
2018-02-23T06:03:12.808Z,1020.9
2018-02-23T06:04:12.823Z,1020.87
2018-02-23T06:05:12.829Z,1020.88
2018-02-23T06:06:12.841Z,1020.93
2018-02-23T06:07:12.848Z,1020.97
2018-02-23T06:08:12.860Z,1020.96
2018-02-23T06:09:12.867Z,1020.95
2018-02-23T06:10:12.877Z,1021
2018-02-23T06:11:12.889Z,1020.99
2018-02-23T06:12:12.900Z,1021.01
2018-02-23T06:13:12.913Z,1021.01
2018-02-23T06:14:12.922Z,1021.01
2018-02-23T06:15:12.933Z,1021
2018-02-23T06:16:12.939Z,1020.99
2018-02-23T06:18:12.963Z,1020.98
2018-02-23T06:19:12.969Z,1020.98
2018-02-23T06:20:12.978Z,1020.98
2018-02-23T06:21:12.988Z,1021.01
2018-02-23T06:22:13.003Z,1021.05
2018-02-23T06:23:13.010Z,1021.1
2018-02-23T06:24:13.021Z,1021.05
2018-02-23T06:25:13.032Z,1021.1
2018-02-23T06:26:13.043Z,1021.07
2018-02-23T06:27:13.047Z,1021.14
2018-02-23T06:28:13.058Z,1021.16
2018-02-23T06:29:13.067Z,1021.1
2018-02-23T06:30:13.080Z,1021.13
2018-02-23T06:31:13.087Z,1021.12
2018-02-23T06:32:13.098Z,1021.14
2018-02-23T06:34:13.120Z,1021.19
2018-02-23T06:35:13.130Z,1021.19
2018-02-23T06:36:13.138Z,1021.22
2018-02-23T06:37:13.148Z,1021.24
2018-02-23T06:38:13.207Z,1021.31
2018-02-23T06:39:13.171Z,1021.29
2018-02-23T06:40:13.181Z,1021.28
2018-02-23T06:41:13.195Z,1021.36
2018-02-23T06:42:13.202Z,1021.27
2018-02-23T06:43:13.217Z,1021.31
2018-02-23T06:44:13.226Z,1021.35
2018-02-23T06:45:13.240Z,1021.36
2018-02-23T06:46:13.253Z,1021.33
2018-02-23T06:47:13.261Z,1021.37
2018-02-23T06:48:13.306Z,1021.4
2018-02-23T06:50:13.301Z,1021.39
2018-02-23T06:51:13.312Z,1021.45
2018-02-23T06:52:13.324Z,1021.44
2018-02-23T06:53:13.332Z,1021.49
2018-02-23T06:54:13.348Z,1021.53
2018-02-23T06:55:13.356Z,1021.62
2018-02-23T06:56:13.369Z,1021.59
2018-02-23T06:57:13.380Z,1021.59
2018-02-23T06:58:13.394Z,1021.65
2018-02-23T06:59:13.405Z,1021.68
2018-02-23T07:00:13.413Z,1021.68
2018-02-23T07:01:13.426Z,1021.71
2018-02-23T07:02:13.438Z,1021.73
2018-02-23T07:03:13.450Z,1021.75
2018-02-23T07:04:13.465Z,1021.69
2018-02-23T07:06:13.489Z,1021.69
2018-02-23T07:07:13.502Z,1021.66
2018-02-23T07:08:13.513Z,1021.74
2018-02-23T07:09:13.528Z,1021.71
2018-02-23T07:10:13.542Z,1021.75
2018-02-23T07:11:13.619Z,1021.74
2018-02-23T07:12:13.573Z,1021.79
2018-02-23T07:13:13.588Z,1021.79
2018-02-23T07:14:13.599Z,1021.8
2018-02-23T07:15:13.611Z,1021.82
2018-02-23T07:16:13.628Z,1021.83
2018-02-23T07:17:13.641Z,1021.85
2018-02-23T07:18:13.656Z,1021.92
2018-02-23T07:19:13.672Z,1021.91
2018-02-23T07:21:13.702Z,1021.88
2018-02-23T07:22:13.771Z,1021.9
2018-02-23T07:23:13.732Z,1021.86
2018-02-23T07:24:13.749Z,1021.83
2018-02-23T07:25:13.764Z,1021.87
2018-02-23T07:26:13.781Z,1021.91
2018-02-23T07:27:13.798Z,1021.92
2018-02-23T07:28:13.811Z,1021.95
2018-02-23T07:29:13.826Z,1021.96
2018-02-23T07:30:13.842Z,1021.91
2018-02-23T07:31:13.860Z,1021.91
2018-02-23T07:32:13.877Z,1021.91
2018-02-23T07:33:13.888Z,1021.87
2018-02-23T07:34:13.908Z,1021.84
2018-02-23T07:35:13.924Z,1021.8
2018-02-23T07:36:13.938Z,1021.83
2018-02-23T07:37:13.952Z,1021.94
2018-02-23T07:38:13.973Z,1021.84
2018-02-23T07:39:13.985Z,1021.83
2018-02-23T07:40:14.000Z,1021.9
2018-02-23T07:41:14.016Z,1021.85
2018-02-23T07:42:14.034Z,1021.9
2018-02-23T07:43:14.053Z,1021.85
2018-02-23T07:44:14.068Z,1021.89
2018-02-23T07:45:14.081Z,1021.84
2018-02-23T07:46:14.101Z,1021.81
2018-02-23T07:47:14.116Z,1021.89
2018-02-23T07:48:14.127Z,1021.9
2018-02-23T07:49:14.144Z,1021.9
2018-02-23T07:50:14.160Z,1021.89
2018-02-23T07:51:14.179Z,1021.9
2018-02-23T07:53:14.208Z,1021.91
2018-02-23T07:54:14.224Z,1021.92
2018-02-23T07:55:14.238Z,1021.94
2018-02-23T07:56:14.258Z,1021.94
2018-02-23T07:57:14.271Z,1021.94
2018-02-23T07:58:14.287Z,1022
2018-02-23T07:59:14.301Z,1021.98
2018-02-23T08:00:14.317Z,1021.96
2018-02-23T08:01:14.336Z,1021.95
2018-02-23T08:02:14.348Z,1022.01
2018-02-23T08:03:14.364Z,1022.01
2018-02-23T08:04:14.378Z,1022.02
2018-02-23T08:05:14.395Z,1022
2018-02-23T08:06:14.413Z,1022.01
2018-02-23T08:07:14.424Z,1021.98
2018-02-23T08:09:14.459Z,1022.04
2018-02-23T08:10:14.474Z,1022.07
2018-02-23T08:11:14.487Z,1022.07
2018-02-23T08:12:14.502Z,1022.06
2018-02-23T08:13:14.519Z,1022.08
2018-02-23T08:14:14.532Z,1022.02
2018-02-23T08:15:14.545Z,1022.14
2018-02-23T08:16:14.563Z,1022.1
2018-02-23T08:17:14.576Z,1022.11
2018-02-23T08:18:14.591Z,1022.11
2018-02-23T08:19:14.606Z,1022.1
2018-02-23T08:20:14.722Z,1022.13
2018-02-23T08:21:14.640Z,1022.1
2018-02-23T08:22:14.651Z,1022.1
2018-02-23T08:23:14.669Z,1022.07
2018-02-23T08:25:14.697Z,1022.03
2018-02-23T08:26:14.715Z,1022.08
2018-02-23T08:27:14.728Z,1022.09
2018-02-23T08:28:14.739Z,1022.04
2018-02-23T08:29:14.758Z,1022.09
2018-02-23T08:30:14.771Z,1022.1
2018-02-23T08:31:14.785Z,1022.08
2018-02-23T08:32:14.800Z,1022.07
2018-02-23T08:33:14.816Z,1022.04
2018-02-23T08:34:14.866Z,1022.02
2018-02-23T08:35:14.840Z,1022.02
2018-02-23T08:36:14.859Z,1022.02
2018-02-23T08:37:14.871Z,1022.04
2018-02-23T08:38:14.889Z,1021.98
2018-02-23T08:39:14.900Z,1022
2018-02-23T08:41:14.932Z,1022.08
2018-02-23T08:42:14.947Z,1022.07
2018-02-23T08:43:14.959Z,1022.06
2018-02-23T08:44:14.978Z,1022.06
2018-02-23T08:45:14.991Z,1022.04
2018-02-23T08:46:15.006Z,1022.06
2018-02-23T08:47:15.018Z,1022.08
2018-02-23T08:48:15.032Z,1022.07
2018-02-23T08:49:15.046Z,1022.1
2018-02-23T08:50:15.063Z,1022.08
2018-02-23T08:51:15.078Z,1022.1
2018-02-23T08:52:15.096Z,1022.11
2018-02-23T08:53:15.109Z,1022.04
2018-02-23T08:54:15.122Z,1022.09
2018-02-23T08:56:15.150Z,1022.09
2018-02-23T08:57:15.168Z,1022.09
2018-02-23T08:58:15.181Z,1022.1
2018-02-23T08:59:15.199Z,1022.11
2018-02-23T09:00:15.209Z,1022.08
2018-02-23T09:01:15.224Z,1022.13
2018-02-23T09:02:15.240Z,1022.12
2018-02-23T09:03:15.258Z,1022.13
2018-02-23T09:04:15.269Z,1022.11
2018-02-23T09:05:15.285Z,1022.1
2018-02-23T09:06:15.299Z,1022.11
2018-02-23T09:07:15.317Z,1022.12
2018-02-23T09:08:15.332Z,1022.12
2018-02-23T09:09:15.347Z,1022.16
2018-02-23T09:10:15.360Z,1022.17
2018-02-23T09:11:15.378Z,1022.15
2018-02-23T09:12:15.390Z,1022.14
2018-02-23T09:13:15.407Z,1022.16
2018-02-23T09:14:15.418Z,1022.14
2018-02-23T09:15:15.432Z,1022.22
2018-02-23T09:16:15.451Z,1022.22
2018-02-23T09:17:15.463Z,1022.23
2018-02-23T09:18:15.481Z,1022.25
2018-02-23T09:19:15.492Z,1022.2
2018-02-23T09:20:15.510Z,1022.23
2018-02-23T09:21:15.523Z,1022.22
2018-02-23T09:22:15.537Z,1022.28
2018-02-23T09:23:15.556Z,1022.24
2018-02-23T09:24:15.572Z,1022.25
2018-02-23T09:25:15.587Z,1022.27
2018-02-23T09:26:15.598Z,1022.28
2018-02-23T09:28:15.629Z,1022.24
2018-02-23T09:29:15.644Z,1022.26
2018-02-23T09:30:15.665Z,1022.26
2018-02-23T09:31:15.674Z,1022.28
2018-02-23T09:32:15.693Z,1022.33
2018-02-23T09:33:15.709Z,1022.28
2018-02-23T09:34:15.720Z,1022.31
2018-02-23T09:35:15.739Z,1022.26
2018-02-23T09:36:15.756Z,1022.3
2018-02-23T09:37:15.766Z,1022.3
2018-02-23T09:38:15.784Z,1022.29
2018-02-23T09:39:15.800Z,1022.32
2018-02-23T09:40:15.812Z,1022.29
2018-02-23T09:41:15.828Z,1022.26
2018-02-23T09:42:15.845Z,1022.27
2018-02-23T09:44:15.877Z,1022.27
2018-02-23T09:45:15.890Z,1022.26
2018-02-23T09:46:15.904Z,1022.2
2018-02-23T09:47:15.919Z,1022.21
2018-02-23T09:48:15.938Z,1022.2
2018-02-23T09:49:15.950Z,1022.19
2018-02-23T09:50:16.041Z,1022.18
2018-02-23T09:51:15.983Z,1022.2
2018-02-23T09:52:15.995Z,1022.15
2018-02-23T09:53:16.013Z,1022.17
2018-02-23T09:54:16.028Z,1022.15
2018-02-23T09:55:16.047Z,1022.14
2018-02-23T09:56:16.059Z,1022.1
2018-02-23T09:57:16.080Z,1022.13
2018-02-23T09:58:16.088Z,1022.16
2018-02-23T10:00:16.134Z,1022.14
2018-02-23T10:01:16.139Z,1022.14
2018-02-23T10:02:16.153Z,1022.14
2018-02-23T10:03:16.164Z,1022.15
2018-02-23T10:04:16.184Z,1022.2
2018-02-23T10:05:16.195Z,1022.2
2018-02-23T10:06:16.211Z,1022.28
2018-02-23T10:07:16.226Z,1022.21
2018-02-23T10:08:16.245Z,1022.24
2018-02-23T10:09:16.257Z,1022.25
2018-02-23T10:10:16.280Z,1022.25
2018-02-23T10:11:16.287Z,1022.25
2018-02-23T10:12:16.306Z,1022.26
2018-02-23T10:13:16.319Z,1022.26
2018-02-23T10:14:16.334Z,1022.33
2018-02-23T10:16:16.367Z,1022.22
2018-02-23T10:17:16.383Z,1022.22
2018-02-23T10:18:16.400Z,1022.26
2018-02-23T10:19:16.409Z,1022.28
2018-02-23T10:20:16.427Z,1022.27
2018-02-23T10:21:16.442Z,1022.22
2018-02-23T10:22:16.455Z,1022.26
2018-02-23T10:23:16.471Z,1022.21
2018-02-23T10:24:16.485Z,1022.21
2018-02-23T10:25:16.504Z,1022.18
2018-02-23T10:26:16.516Z,1022.21
2018-02-23T10:27:16.532Z,1022.21
2018-02-23T10:28:16.545Z,1022.22
2018-02-23T10:29:16.561Z,1022.2
2018-02-23T10:31:16.593Z,1022.25
2018-02-23T10:32:16.609Z,1022.21
2018-02-23T10:33:16.622Z,1022.21
2018-02-23T10:34:16.641Z,1022.18
2018-02-23T10:35:16.651Z,1022.18
2018-02-23T10:36:16.669Z,1022.13
2018-02-23T10:37:16.682Z,1022.15
2018-02-23T10:38:16.700Z,1022.14
2018-02-23T10:39:16.712Z,1022.16
2018-02-23T10:40:16.724Z,1022.14
2018-02-23T10:41:16.739Z,1022.11
2018-02-23T10:42:16.753Z,1022.11
2018-02-23T10:43:16.770Z,1022.1
2018-02-23T10:44:16.784Z,1022.1
2018-02-23T10:45:16.812Z,1022.03
2018-02-23T10:46:16.810Z,1022.09
2018-02-23T10:47:16.847Z,1022.05
2018-02-23T10:48:16.840Z,1022.05
2018-02-23T10:49:16.853Z,1022.06
2018-02-23T10:50:16.869Z,1022.08
2018-02-23T10:51:16.909Z,1022.11
2018-02-23T10:52:16.898Z,1022.09
2018-02-23T10:53:16.909Z,1022.13
2018-02-23T10:54:16.928Z,1022.05
2018-02-23T10:55:16.939Z,1022.05
2018-02-23T10:56:16.955Z,1022.04
2018-02-23T10:57:16.967Z,1022.07
2018-02-23T10:58:16.975Z,1022.07
2018-02-23T10:59:16.993Z,1022.06
2018-02-23T11:00:17.010Z,1022.07
2018-02-23T11:01:17.016Z,1022
2018-02-23T11:03:17.044Z,1022.09
2018-02-23T11:04:17.058Z,1022.05
2018-02-23T11:05:17.074Z,1022.08
2018-02-23T11:06:17.084Z,1022.07
2018-02-23T11:07:17.103Z,1022.14
2018-02-23T11:08:17.117Z,1022.09
2018-02-23T11:09:17.123Z,1022.03
2018-02-23T11:10:17.135Z,1022.05
2018-02-23T11:11:17.152Z,1022.04
2018-02-23T11:12:17.162Z,1022.01
2018-02-23T11:13:17.174Z,1021.99
2018-02-23T11:14:17.191Z,1021.94
2018-02-23T11:15:17.209Z,1021.98
2018-02-23T11:16:17.213Z,1021.97
2018-02-23T11:17:17.330Z,1021.98
2018-02-23T11:19:17.255Z,1021.97
2018-02-23T11:20:17.270Z,1022
2018-02-23T11:21:17.279Z,1022.06
2018-02-23T11:22:17.292Z,1021.96
2018-02-23T11:23:17.305Z,1022
2018-02-23T11:24:17.318Z,1021.96
2018-02-23T11:25:17.330Z,1021.94
2018-02-23T11:26:17.345Z,1021.93
2018-02-23T11:27:17.360Z,1021.9
2018-02-23T11:28:17.374Z,1021.93
2018-02-23T11:29:17.386Z,1021.99
2018-02-23T11:30:17.396Z,1021.95
2018-02-23T11:31:17.408Z,1021.94
2018-02-23T11:32:17.422Z,1021.84
2018-02-23T11:33:17.440Z,1021.9
2018-02-23T11:35:17.460Z,1021.85
2018-02-23T11:36:17.473Z,1021.87
2018-02-23T11:37:17.487Z,1021.89
2018-02-23T11:38:17.500Z,1021.81
2018-02-23T11:39:17.513Z,1021.9
2018-02-23T11:40:17.529Z,1021.82
2018-02-23T11:41:17.538Z,1021.83
2018-02-23T11:42:17.552Z,1021.78
2018-02-23T11:43:17.565Z,1021.82
2018-02-23T11:44:17.578Z,1021.79
2018-02-23T11:45:17.592Z,1021.88
2018-02-23T11:46:17.607Z,1021.76
2018-02-23T11:47:17.616Z,1021.82
2018-02-23T11:48:17.633Z,1021.8
2018-02-23T11:49:17.649Z,1021.87
2018-02-23T11:51:17.668Z,1021.79
2018-02-23T11:52:17.689Z,1021.78
2018-02-23T11:53:17.694Z,1021.81
2018-02-23T11:54:17.712Z,1021.73
2018-02-23T11:55:17.720Z,1021.72
2018-02-23T11:56:17.732Z,1021.64
2018-02-23T11:57:17.747Z,1021.8
2018-02-23T11:58:17.760Z,1021.67
2018-02-23T11:59:17.777Z,1021.73
2018-02-23T12:00:17.789Z,1021.66
2018-02-23T12:01:17.798Z,1021.67
2018-02-23T12:02:17.811Z,1021.71
2018-02-23T12:03:17.824Z,1021.78
2018-02-23T12:04:17.839Z,1021.73
2018-02-23T12:06:17.868Z,1021.65
2018-02-23T12:07:17.876Z,1021.68
2018-02-23T12:08:17.888Z,1021.77
2018-02-23T12:09:17.909Z,1021.79
2018-02-23T12:10:17.917Z,1021.72
2018-02-23T12:11:17.933Z,1021.7
2018-02-23T12:12:17.941Z,1021.72
2018-02-23T12:13:17.953Z,1021.7
2018-02-23T12:14:17.969Z,1021.69
2018-02-23T12:15:17.978Z,1021.7
2018-02-23T12:16:17.993Z,1021.76
2018-02-23T12:17:18.006Z,1021.73
2018-02-23T12:18:18.017Z,1021.73
2018-02-23T12:19:18.030Z,1021.76
2018-02-23T12:20:18.044Z,1021.78
2018-02-23T12:21:18.078Z,1021.76
2018-02-23T12:22:18.069Z,1021.69
2018-02-23T12:23:18.085Z,1021.72
2018-02-23T12:24:18.133Z,1021.74
2018-02-23T12:25:18.108Z,1021.71
2018-02-23T12:26:18.122Z,1021.7
2018-02-23T12:27:18.134Z,1021.74
2018-02-23T12:28:18.146Z,1021.69
2018-02-23T12:29:18.162Z,1021.68
2018-02-23T12:30:18.172Z,1021.67
2018-02-23T12:31:18.186Z,1021.66
2018-02-23T12:32:18.198Z,1021.64
2018-02-23T12:33:18.212Z,1021.62
2018-02-23T12:34:18.224Z,1021.59
2018-02-23T12:35:18.241Z,1021.64
2018-02-23T12:36:18.250Z,1021.62
2018-02-23T12:38:18.278Z,1021.56
2018-02-23T12:39:18.290Z,1021.52
2018-02-23T12:40:18.304Z,1021.53
2018-02-23T12:41:18.315Z,1021.58
2018-02-23T12:42:18.327Z,1021.55
2018-02-23T12:43:18.340Z,1021.54
2018-02-23T12:44:18.353Z,1021.55
2018-02-23T12:45:18.366Z,1021.55
2018-02-23T12:46:18.379Z,1021.5
2018-02-23T12:47:18.395Z,1021.51
2018-02-23T12:48:18.406Z,1021.51